sensor_id;sensor_type;location;lat;lon;timestamp;pressure;altitude;pressure_sealevel;temperature;humidity
42111;BME280;27766;52.174;5.456;2022-12-18T00:01:25;102766.44;;;-4.91;100.00
42111;BME280;27766;52.174;5.456;2022-12-18T00:03:53;102755.41;;;-4.92;100.00
42111;BME280;27766;52.174;5.456;2022-12-18T00:06:21;102756.34;;;-4.91;100.00
42111;BME280;27766;52.174;5.456;2022-12-18T00:08:48;102752.91;;;-4.92;100.00
42111;BME280;27766;52.174;5.456;2022-12-18T00:11:18;102749.13;;;-4.96;100.00
42111;BME280;27766;52.174;5.456;2022-12-18T00:13:45;102743.97;;;-5.04;100.00
42111;BME280;27766;52.174;5.456;2022-12-18T00:16:15;102749.53;;;-5.00;100.00
42111;BME280;27766;52.174;5.456;2022-12-18T00:18:46;102740.47;;;-4.98;100.00
42111;BME280;27766;52.174;5.456;2022-12-18T00:21:14;102736.50;;;-4.96;100.00
42111;BME280;27766;52.174;5.456;2022-12-18T00:23:43;102741.41;;;-4.97;100.00
42111;BME280;27766;52.174;5.456;2022-12-18T00:26:16;102734.94;;;-5.02;100.00
42111;BME280;27766;52.174;5.456;2022-12-18T00:28:44;102748.06;;;-4.98;100.00
42111;BME280;27766;52.174;5.456;2022-12-18T00:31:17;102741.22;;;-4.99;100.00
42111;BME280;27766;52.174;5.456;2022-12-18T00:33:45;102738.19;;;-5.03;100.00
42111;BME280;27766;52.174;5.456;2022-12-18T00:36:17;102735.88;;;-5.09;100.00
42111;BME280;27766;52.174;5.456;2022-12-18T00:38:45;102725.97;;;-5.15;100.00
42111;BME280;27766;52.174;5.456;2022-12-18T00:41:14;102739.84;;;-5.11;100.00
42111;BME280;27766;52.174;5.456;2022-12-18T00:44:03;102726.34;;;-5.12;100.00
42111;BME280;27766;52.174;5.456;2022-12-18T00:46:31;102723.63;;;-5.13;100.00
42111;BME280;27766;52.174;5.456;2022-12-18T00:48:58;102736.63;;;-5.17;100.00
42111;BME280;27766;52.174;5.456;2022-12-18T00:51:26;102750.34;;;-5.15;100.00
42111;BME280;27766;52.174;5.456;2022-12-18T00:53:53;102736.06;;;-5.15;100.00
42111;BME280;27766;52.174;5.456;2022-12-18T00:56:23;102738.81;;;-5.20;100.00
42111;BME280;27766;52.174;5.456;2022-12-18T00:58:50;102729.66;;;-5.27;100.00
42111;BME280;27766;52.174;5.456;2022-12-18T01:01:18;102739.22;;;-5.25;100.00
42111;BME280;27766;52.174;5.456;2022-12-18T01:03:45;102728.75;;;-5.28;100.00
42111;BME280;27766;52.174;5.456;2022-12-18T01:06:15;102732.03;;;-5.29;100.00
42111;BME280;27766;52.174;5.456;2022-12-18T01:08:43;102727.88;;;-5.28;100.00
42111;BME280;27766;52.174;5.456;2022-12-18T01:11:13;102705.03;;;-5.37;100.00
42111;BME280;27766;52.174;5.456;2022-12-18T01:13:40;102723.22;;;-5.40;100.00
42111;BME280;27766;52.174;5.456;2022-12-18T01:16:08;102726.66;;;-5.39;100.00
42111;BME280;27766;52.174;5.456;2022-12-18T01:18:37;102727.22;;;-5.42;100.00
42111;BME280;27766;52.174;5.456;2022-12-18T01:21:09;102720.72;;;-5.47;100.00
42111;BME280;27766;52.174;5.456;2022-12-18T01:23:37;102727.59;;;-5.46;100.00
42111;BME280;27766;52.174;5.456;2022-12-18T01:26:07;102737.31;;;-5.42;100.00
42111;BME280;27766;52.174;5.456;2022-12-18T01:28:35;102749.38;;;-5.39;100.00
42111;BME280;27766;52.174;5.456;2022-12-18T01:31:19;102750.81;;;-5.41;100.00
42111;BME280;27766;52.174;5.456;2022-12-18T01:33:46;102738.94;;;-5.42;100.00
42111;BME280;27766;52.174;5.456;2022-12-18T01:36:25;102742.69;;;-5.38;100.00
42111;BME280;27766;52.174;5.456;2022-12-18T01:38:53;102744.91;;;-5.42;100.00
42111;BME280;27766;52.174;5.456;2022-12-18T01:41:27;102738.56;;;-5.38;100.00
42111;BME280;27766;52.174;5.456;2022-12-18T01:47:37;102758.16;;;-5.28;100.00
42111;BME280;27766;52.174;5.456;2022-12-18T01:50:27;102756.38;;;-5.29;100.00
42111;BME280;27766;52.174;5.456;2022-12-18T01:53:04;102749.50;;;-5.30;100.00
42111;BME280;27766;52.174;5.456;2022-12-18T01:55:38;102741.25;;;-5.36;100.00
42111;BME280;27766;52.174;5.456;2022-12-18T01:58:07;102757.28;;;-5.29;100.00
42111;BME280;27766;52.174;5.456;2022-12-18T02:00:34;102756.00;;;-5.32;100.00
42111;BME280;27766;52.174;5.456;2022-12-18T02:03:02;102748.81;;;-5.36;100.00
42111;BME280;27766;52.174;5.456;2022-12-18T02:05:41;102754.75;;;-5.36;100.00
42111;BME280;27766;52.174;5.456;2022-12-18T02:08:18;102751.75;;;-5.48;100.00
42111;BME280;27766;52.174;5.456;2022-12-18T02:11:04;102770.13;;;-5.42;100.00
42111;BME280;27766;52.174;5.456;2022-12-18T02:14:08;102772.47;;;-5.43;100.00
42111;BME280;27766;52.174;5.456;2022-12-18T02:27:51;102760.13;;;-5.63;100.00
42111;BME280;27766;52.174;5.456;2022-12-18T02:30:21;102760.50;;;-5.67;100.00
42111;BME280;27766;52.174;5.456;2022-12-18T02:32:51;102776.88;;;-5.64;100.00
42111;BME280;27766;52.174;5.456;2022-12-18T02:35:23;102768.22;;;-5.66;100.00
42111;BME280;27766;52.174;5.456;2022-12-18T02:37:51;102753.66;;;-5.76;100.00
42111;BME280;27766;52.174;5.456;2022-12-18T02:40:22;102759.25;;;-5.71;100.00
42111;BME280;27766;52.174;5.456;2022-12-18T02:42:50;102748.44;;;-5.77;100.00
42111;BME280;27766;52.174;5.456;2022-12-18T02:45:17;102745.00;;;-5.78;100.00
42111;BME280;27766;52.174;5.456;2022-12-18T02:47:47;102752.06;;;-5.75;100.00
42111;BME280;27766;52.174;5.456;2022-12-18T02:53:10;102744.69;;;-5.81;100.00
42111;BME280;27766;52.174;5.456;2022-12-18T02:58:18;102736.94;;;-5.90;100.00
42111;BME280;27766;52.174;5.456;2022-12-18T03:01:10;102734.63;;;-5.88;100.00
42111;BME280;27766;52.174;5.456;2022-12-18T03:06:40;102726.50;;;-5.93;100.00
42111;BME280;27766;52.174;5.456;2022-12-18T03:09:12;102732.13;;;-5.95;100.00
42111;BME280;27766;52.174;5.456;2022-12-18T03:11:44;102725.66;;;-6.00;100.00
42111;BME280;27766;52.174;5.456;2022-12-18T03:14:34;102722.25;;;-6.01;100.00
42111;BME280;27766;52.174;5.456;2022-12-18T03:17:07;102722.78;;;-6.03;100.00
42111;BME280;27766;52.174;5.456;2022-12-18T03:19:36;102703.72;;;-6.16;100.00
42111;BME280;27766;52.174;5.456;2022-12-18T03:22:07;102721.53;;;-6.07;100.00
42111;BME280;27766;52.174;5.456;2022-12-18T03:24:35;102715.06;;;-6.12;100.00
42111;BME280;27766;52.174;5.456;2022-12-18T03:27:10;102710.75;;;-6.13;100.00
42111;BME280;27766;52.174;5.456;2022-12-18T03:29:42;102714.88;;;-6.14;100.00
42111;BME280;27766;52.174;5.456;2022-12-18T03:32:15;102697.09;;;-6.23;100.00
42111;BME280;27766;52.174;5.456;2022-12-18T03:34:50;102705.69;;;-6.21;100.00
42111;BME280;27766;52.174;5.456;2022-12-18T03:37:18;102703.53;;;-6.17;100.00
42111;BME280;27766;52.174;5.456;2022-12-18T03:39:45;102691.84;;;-6.24;100.00
42111;BME280;27766;52.174;5.456;2022-12-18T03:44:59;102695.44;;;-6.22;100.00
42111;BME280;27766;52.174;5.456;2022-12-18T03:50:20;102689.53;;;-6.23;100.00
42111;BME280;27766;52.174;5.456;2022-12-18T03:55:31;102687.91;;;-6.29;100.00
42111;BME280;27766;52.174;5.456;2022-12-18T03:58:01;102694.38;;;-6.24;100.00
42111;BME280;27766;52.174;5.456;2022-12-18T04:00:30;102659.31;;;-6.44;100.00
42111;BME280;27766;52.174;5.456;2022-12-18T04:02:59;102686.09;;;-6.30;100.00
42111;BME280;27766;52.174;5.456;2022-12-18T04:05:28;102675.31;;;-6.37;100.00
42111;BME280;27766;52.174;5.456;2022-12-18T04:07:57;102675.31;;;-6.37;100.00
42111;BME280;27766;52.174;5.456;2022-12-18T04:10:24;102681.59;;;-6.33;100.00
42111;BME280;27766;52.174;5.456;2022-12-18T04:12:55;102683.97;;;-6.34;100.00
42111;BME280;27766;52.174;5.456;2022-12-18T04:15:23;102677.47;;;-6.40;100.00
42111;BME280;27766;52.174;5.456;2022-12-18T04:17:50;102669.91;;;-6.40;100.00
42111;BME280;27766;52.174;5.456;2022-12-18T04:20:17;102667.59;;;-6.38;100.00
42111;BME280;27766;52.174;5.456;2022-12-18T04:22:44;102659.50;;;-6.43;100.00
42111;BME280;27766;52.174;5.456;2022-12-18T04:25:12;102664.53;;;-6.43;100.00
42111;BME280;27766;52.174;5.456;2022-12-18T04:27:39;102651.94;;;-6.50;100.00
42111;BME280;27766;52.174;5.456;2022-12-18T04:30:07;102655.88;;;-6.45;100.00
42111;BME280;27766;52.174;5.456;2022-12-18T04:32:39;102656.59;;;-6.46;100.00
42111;BME280;27766;52.174;5.456;2022-12-18T04:35:07;102635.22;;;-6.57;100.00
42111;BME280;27766;52.174;5.456;2022-12-18T04:37:37;102653.94;;;-6.55;100.00
42111;BME280;27766;52.174;5.456;2022-12-18T04:40:06;102660.94;;;-6.52;100.00
42111;BME280;27766;52.174;5.456;2022-12-18T04:42:33;102657.53;;;-6.53;100.00
42111;BME280;27766;52.174;5.456;2022-12-18T04:45:01;102645.13;;;-6.65;100.00
42111;BME280;27766;52.174;5.456;2022-12-18T04:47:28;102671.41;;;-6.56;100.00
42111;BME280;27766;52.174;5.456;2022-12-18T04:49:55;102672.47;;;-6.61;100.00
42111;BME280;27766;52.174;5.456;2022-12-18T04:52:22;102675.69;;;-6.62;100.00
42111;BME280;27766;52.174;5.456;2022-12-18T04:54:52;102658.78;;;-6.78;100.00
42111;BME280;27766;52.174;5.456;2022-12-18T04:57:19;102690.66;;;-6.64;100.00
42111;BME280;27766;52.174;5.456;2022-12-18T04:59:47;102687.97;;;-6.65;100.00
42111;BME280;27766;52.174;5.456;2022-12-18T05:02:14;102697.88;;;-6.67;100.00
42111;BME280;27766;52.174;5.456;2022-12-18T05:04:41;102698.38;;;-6.70;100.00
42111;BME280;27766;52.174;5.456;2022-12-18T05:07:08;102698.59;;;-6.75;100.00
42111;BME280;27766;52.174;5.456;2022-12-18T05:09:38;102715.66;;;-6.80;100.00
42111;BME280;27766;52.174;5.456;2022-12-18T05:12:06;102692.09;;;-6.88;100.00
42111;BME280;27766;52.174;5.456;2022-12-18T05:14:33;102725.75;;;-6.73;100.00
42111;BME280;27766;52.174;5.456;2022-12-18T05:17:00;102727.00;;;-6.76;100.00
42111;BME280;27766;52.174;5.456;2022-12-18T05:19:27;102714.94;;;-6.86;100.00
42111;BME280;27766;52.174;5.456;2022-12-18T05:21:54;102714.41;;;-6.84;100.00
42111;BME280;27766;52.174;5.456;2022-12-18T05:24:21;102696.94;;;-6.96;100.00
42111;BME280;27766;52.174;5.456;2022-12-18T05:26:48;102715.84;;;-6.86;100.00
42111;BME280;27766;52.174;5.456;2022-12-18T05:29:16;102739.59;;;-6.76;100.00
42111;BME280;27766;52.174;5.456;2022-12-18T05:31:43;102721.25;;;-6.90;100.00
42111;BME280;27766;52.174;5.456;2022-12-18T05:34:10;102737.63;;;-6.86;100.00
42111;BME280;27766;52.174;5.456;2022-12-18T05:36:38;102726.44;;;-6.88;100.00
42111;BME280;27766;52.174;5.456;2022-12-18T05:39:06;102721.25;;;-6.90;100.00
42111;BME280;27766;52.174;5.456;2022-12-18T05:41:33;102723.22;;;-6.87;100.00
42111;BME280;27766;52.174;5.456;2022-12-18T05:44:01;102722.69;;;-6.85;100.00
42111;BME280;27766;52.174;5.456;2022-12-18T05:46:28;102714.94;;;-6.86;100.00
42111;BME280;27766;52.174;5.456;2022-12-18T05:48:59;102719.06;;;-6.87;100.00
42111;BME280;27766;52.174;5.456;2022-12-18T05:51:27;102716.38;;;-6.88;100.00
42111;BME280;27766;52.174;5.456;2022-12-18T05:53:55;102715.13;;;-6.85;100.00
42111;BME280;27766;52.174;5.456;2022-12-18T05:56:22;102711.69;;;-6.85;100.00
42111;BME280;27766;52.174;5.456;2022-12-18T05:58:54;102705.75;;;-6.86;100.00
42111;BME280;27766;52.174;5.456;2022-12-18T06:01:24;102693.00;;;-6.94;100.00
42111;BME280;27766;52.174;5.456;2022-12-18T06:03:54;102697.28;;;-6.93;100.00
42111;BME280;27766;52.174;5.456;2022-12-18T06:06:24;102701.28;;;-6.88;100.00
42111;BME280;27766;52.174;5.456;2022-12-18T06:08:51;102703.25;;;-6.86;100.00
42111;BME280;27766;52.174;5.456;2022-12-18T06:11:22;102693.88;;;-6.87;100.00
42111;BME280;27766;52.174;5.456;2022-12-18T06:13:52;102689.72;;;-6.93;100.00
42111;BME280;27766;52.174;5.456;2022-12-18T06:16:25;102675.00;;;-6.97;100.00
42111;BME280;27766;52.174;5.456;2022-12-18T06:18:52;102676.44;;;-7.00;100.00
42111;BME280;27766;52.174;5.456;2022-12-18T06:21:19;102654.13;;;-7.11;100.00
42111;BME280;27766;52.174;5.456;2022-12-18T06:23:46;102690.81;;;-6.91;100.00
42111;BME280;27766;52.174;5.456;2022-12-18T06:26:14;102691.53;;;-6.92;100.00
42111;BME280;27766;52.174;5.456;2022-12-18T06:28:42;102691.75;;;-6.91;100.00
42111;BME280;27766;52.174;5.456;2022-12-18T06:31:09;102666.91;;;-7.02;100.00
42111;BME280;27766;52.174;5.456;2022-12-18T06:33:37;102669.97;;;-6.90;100.00
42111;BME280;27766;52.174;5.456;2022-12-18T06:36:11;102658.47;;;-6.95;100.00
42111;BME280;27766;52.174;5.456;2022-12-18T06:38:41;102667.44;;;-6.90;100.00
42111;BME280;27766;52.174;5.456;2022-12-18T06:41:09;102656.28;;;-6.92;100.00
42111;BME280;27766;52.174;5.456;2022-12-18T06:43:37;102651.25;;;-7.00;100.00
42111;BME280;27766;52.174;5.456;2022-12-18T06:46:06;102661.16;;;-6.94;100.00
42111;BME280;27766;52.174;5.456;2022-12-18T06:48:33;102654.16;;;-6.96;100.00
42111;BME280;27766;52.174;5.456;2022-12-18T06:51:02;102648.94;;;-6.98;100.00
42111;BME280;27766;52.174;5.456;2022-12-18T06:53:29;102650.53;;;-6.98;100.00
42111;BME280;27766;52.174;5.456;2022-12-18T06:56:05;102641.19;;;-7.00;100.00
42111;BME280;27766;52.174;5.456;2022-12-18T06:58:37;102619.59;;;-7.12;100.00
42111;BME280;27766;52.174;5.456;2022-12-18T07:01:09;102638.50;;;-7.01;100.00
42111;BME280;27766;52.174;5.456;2022-12-18T07:03:38;102626.78;;;-7.08;100.00
42111;BME280;27766;52.174;5.456;2022-12-18T07:06:17;102633.28;;;-7.03;100.00
42111;BME280;27766;52.174;5.456;2022-12-18T07:08:45;102634.00;;;-7.04;100.00
42111;BME280;27766;52.174;5.456;2022-12-18T07:11:13;102623.94;;;-7.11;100.00
42111;BME280;27766;52.174;5.456;2022-12-18T07:13:40;102605.22;;;-7.20;100.00
42111;BME280;27766;52.174;5.456;2022-12-18T07:16:13;102598.75;;;-7.18;100.00
42111;BME280;27766;52.174;5.456;2022-12-18T07:18:50;102600.72;;;-7.23;100.00
42111;BME280;27766;52.174;5.456;2022-12-18T07:21:18;102620.31;;;-7.06;100.00
42111;BME280;27766;52.174;5.456;2022-12-18T07:23:46;102619.22;;;-7.08;100.00
42111;BME280;27766;52.174;5.456;2022-12-18T07:26:17;102614.56;;;-7.12;100.00
42111;BME280;27766;52.174;5.456;2022-12-18T07:28:45;102626.78;;;-7.08;100.00
42111;BME280;27766;52.174;5.456;2022-12-18T07:31:15;102630.22;;;-7.07;100.00
42111;BME280;27766;52.174;5.456;2022-12-18T07:33:43;102616.72;;;-7.08;100.00
42111;BME280;27766;52.174;5.456;2022-12-18T07:36:11;102594.44;;;-7.19;100.00
42111;BME280;27766;52.174;5.456;2022-12-18T07:38:38;102555.97;;;-7.33;100.00
42111;BME280;27766;52.174;5.456;2022-12-18T07:41:11;102591.00;;;-7.12;100.00
42111;BME280;27766;52.174;5.456;2022-12-18T07:43:40;102575.91;;;-7.20;100.00
42111;BME280;27766;52.174;5.456;2022-12-18T07:46:09;102597.66;;;-7.06;100.00
42111;BME280;27766;52.174;5.456;2022-12-18T07:48:40;102589.03;;;-7.08;100.00
42111;BME280;27766;52.174;5.456;2022-12-18T07:51:07;102546.63;;;-7.19;100.00
42111;BME280;27766;52.174;5.456;2022-12-18T07:53:36;102579.31;;;-6.97;100.00
42111;BME280;27766;52.174;5.456;2022-12-18T07:56:09;102576.81;;;-6.97;100.00
42111;BME280;27766;52.174;5.456;2022-12-18T07:58:55;102557.38;;;-6.98;100.00
42111;BME280;27766;52.174;5.456;2022-12-18T08:01:23;102560.97;;;-6.96;100.00
42111;BME280;27766;52.174;5.456;2022-12-18T08:03:50;102550.75;;;-6.98;100.00
42111;BME280;27766;52.174;5.456;2022-12-18T08:06:19;102564.56;;;-6.87;100.00
42111;BME280;27766;52.174;5.456;2022-12-18T08:08:52;102557.72;;;-6.88;100.00
42111;BME280;27766;52.174;5.456;2022-12-18T08:11:19;102551.75;;;-6.81;100.00
42111;BME280;27766;52.174;5.456;2022-12-18T08:13:47;102547.47;;;-6.75;100.00
42111;BME280;27766;52.174;5.456;2022-12-18T08:16:15;102542.22;;;-6.70;100.00
42111;BME280;27766;52.174;5.456;2022-12-18T08:18:43;102545.78;;;-6.60;100.00
42111;BME280;27766;52.174;5.456;2022-12-18T08:21:15;102552.59;;;-6.52;100.00
42111;BME280;27766;52.174;5.456;2022-12-18T08:23:43;102550.78;;;-6.46;100.00
42111;BME280;27766;52.174;5.456;2022-12-18T08:26:12;102560.66;;;-6.40;100.00
42111;BME280;27766;52.174;5.456;2022-12-18T08:28:40;102563.88;;;-6.34;100.00
42111;BME280;27766;52.174;5.456;2022-12-18T08:31:08;102552.72;;;-6.29;100.00
42111;BME280;27766;52.174;5.456;2022-12-18T08:33:37;102563.63;;;-6.14;100.00
42111;BME280;27766;52.174;5.456;2022-12-18T08:36:06;102538.47;;;-6.28;100.00
42111;BME280;27766;52.174;5.456;2022-12-18T08:38:33;102568.25;;;-6.02;100.00
42111;BME280;27766;52.174;5.456;2022-12-18T08:41:06;102571.59;;;-5.95;100.00
42111;BME280;27766;52.174;5.456;2022-12-18T08:43:34;102571.22;;;-5.91;100.00
42111;BME280;27766;52.174;5.456;2022-12-18T08:46:22;102563.41;;;-5.85;100.00
42111;BME280;27766;52.174;5.456;2022-12-18T08:48:51;102578.31;;;-5.72;100.00
42111;BME280;27766;52.174;5.456;2022-12-18T08:51:19;102570.56;;;-5.74;100.00
42111;BME280;27766;52.174;5.456;2022-12-18T08:53:46;102574.66;;;-5.67;100.00
42111;BME280;27766;52.174;5.456;2022-12-18T08:56:14;102565.13;;;-5.69;100.00
42111;BME280;27766;52.174;5.456;2022-12-18T08:58:41;102573.16;;;-5.58;100.00
42111;BME280;27766;52.174;5.456;2022-12-18T09:01:10;102567.75;;;-5.53;100.00
42111;BME280;27766;52.174;5.456;2022-12-18T09:03:39;102576.16;;;-5.46;100.00
42111;BME280;27766;52.174;5.456;2022-12-18T09:06:08;102577.31;;;-5.35;100.00
42111;BME280;27766;52.174;5.456;2022-12-18T09:08:36;102583.22;;;-5.27;100.00
42111;BME280;27766;52.174;5.456;2022-12-18T09:11:12;102581.53;;;-5.19;100.00
42111;BME280;27766;52.174;5.456;2022-12-18T09:13:40;102560.03;;;-5.16;100.00
42111;BME280;27766;52.174;5.456;2022-12-18T09:16:08;102555.69;;;-5.10;100.00
42111;BME280;27766;52.174;5.456;2022-12-18T09:18:36;102549.66;;;-5.03;100.00
42111;BME280;27766;52.174;5.456;2022-12-18T09:21:12;102553.03;;;-4.95;100.00
42111;BME280;27766;52.174;5.456;2022-12-18T09:23:40;102550.22;;;-4.89;100.00
42111;BME280;27766;52.174;5.456;2022-12-18T09:26:08;102553.09;;;-4.86;100.00
42111;BME280;27766;52.174;5.456;2022-12-18T09:28:35;102558.22;;;-4.78;100.00
42111;BME280;27766;52.174;5.456;2022-12-18T09:31:06;102571.72;;;-4.70;100.00
42111;BME280;27766;52.174;5.456;2022-12-18T09:33:35;102567.47;;;-4.62;100.00
42111;BME280;27766;52.174;5.456;2022-12-18T09:36:05;102567.97;;;-4.57;100.00
42111;BME280;27766;52.174;5.456;2022-12-18T09:38:33;102566.66;;;-4.54;100.00
42111;BME280;27766;52.174;5.456;2022-12-18T09:44:01;102549.94;;;-4.45;100.00
42111;BME280;27766;52.174;5.456;2022-12-18T09:46:40;102542.84;;;-4.40;100.00
42111;BME280;27766;52.174;5.456;2022-12-18T09:49:16;102537.56;;;-4.34;100.00
42111;BME280;27766;52.174;5.456;2022-12-18T09:51:49;102531.91;;;-4.32;100.00
42111;BME280;27766;52.174;5.456;2022-12-18T09:54:25;102530.25;;;-4.31;100.00
42111;BME280;27766;52.174;5.456;2022-12-18T09:56:53;102538.97;;;-4.20;100.00
42111;BME280;27766;52.174;5.456;2022-12-18T09:59:27;102522.81;;;-4.14;100.00
42111;BME280;27766;52.174;5.456;2022-12-18T10:01:56;102508.28;;;-4.07;100.00
42111;BME280;27766;52.174;5.456;2022-12-18T10:04:24;102513.97;;;-4.01;100.00
42111;BME280;27766;52.174;5.456;2022-12-18T10:07:16;102502.38;;;-3.99;100.00
42111;BME280;27766;52.174;5.456;2022-12-18T10:10:07;102478.25;;;-4.04;100.00
42111;BME280;27766;52.174;5.456;2022-12-18T10:24:48;102507.94;;;-3.61;100.00
42111;BME280;27766;52.174;5.456;2022-12-18T10:27:18;102500.09;;;-3.55;100.00
42111;BME280;27766;52.174;5.456;2022-12-18T10:29:48;102501.59;;;-3.48;100.00
42111;BME280;27766;52.174;5.456;2022-12-18T10:32:22;102503.56;;;-3.46;100.00
42111;BME280;27766;52.174;5.456;2022-12-18T10:34:50;102501.78;;;-3.47;100.00
42111;BME280;27766;52.174;5.456;2022-12-18T10:37:27;102495.38;;;-3.43;100.00
42111;BME280;27766;52.174;5.456;2022-12-18T10:40:08;102492.13;;;-3.42;100.00
42111;BME280;27766;52.174;5.456;2022-12-18T10:42:40;102481.97;;;-3.42;100.00
42111;BME280;27766;52.174;5.456;2022-12-18T10:45:14;102496.31;;;-3.34;100.00
42111;BME280;27766;52.174;5.456;2022-12-18T10:47:47;102494.81;;;-3.32;100.00
42111;BME280;27766;52.174;5.456;2022-12-18T10:52:55;102488.59;;;-3.27;100.00
42111;BME280;27766;52.174;5.456;2022-12-18T10:55:29;102482.00;;;-3.25;100.00
42111;BME280;27766;52.174;5.456;2022-12-18T10:58:18;102478.31;;;-3.20;100.00
42111;BME280;27766;52.174;5.456;2022-12-18T11:06:07;102473.41;;;-3.09;100.00
42111;BME280;27766;52.174;5.456;2022-12-18T11:08:38;102457.78;;;-3.05;100.00
42111;BME280;27766;52.174;5.456;2022-12-18T11:11:23;102456.44;;;-3.02;100.00
42111;BME280;27766;52.174;5.456;2022-12-18T11:16:27;102438.88;;;-2.91;100.00
42111;BME280;27766;52.174;5.456;2022-12-18T11:19:57;102444.09;;;-2.90;100.00
42111;BME280;27766;52.174;5.456;2022-12-18T11:24:59;102431.88;;;-2.85;100.00
42111;BME280;27766;52.174;5.456;2022-12-18T11:27:50;102416.50;;;-2.87;100.00
42111;BME280;27766;52.174;5.456;2022-12-18T11:30:30;102419.94;;;-2.77;100.00
42111;BME280;27766;52.174;5.456;2022-12-18T11:33:13;102422.03;;;-2.73;100.00
42111;BME280;27766;52.174;5.456;2022-12-18T11:35:52;102426.03;;;-2.66;100.00
42111;BME280;27766;52.174;5.456;2022-12-18T11:38:23;102428.28;;;-2.61;100.00
42111;BME280;27766;52.174;5.456;2022-12-18T11:40:58;102429.03;;;-2.62;100.00
42111;BME280;27766;52.174;5.456;2022-12-18T11:43:29;102422.91;;;-2.55;100.00
42111;BME280;27766;52.174;5.456;2022-12-18T11:46:02;102432.78;;;-2.49;100.00
42111;BME280;27766;52.174;5.456;2022-12-18T11:48:37;102425.75;;;-2.43;100.00
42111;BME280;27766;52.174;5.456;2022-12-18T11:51:12;102420.69;;;-2.43;100.00
42111;BME280;27766;52.174;5.456;2022-12-18T11:53:41;102410.81;;;-2.40;100.00
42111;BME280;27766;52.174;5.456;2022-12-18T11:56:29;102407.38;;;-2.41;100.00
42111;BME280;27766;52.174;5.456;2022-12-18T12:02:28;102394.69;;;-2.32;100.00
42111;BME280;27766;52.174;5.456;2022-12-18T12:17:42;102366.34;;;-2.28;100.00
42111;BME280;27766;52.174;5.456;2022-12-18T12:25:42;102357.50;;;-2.23;100.00
42111;BME280;27766;52.174;5.456;2022-12-18T12:34:51;102323.53;;;-2.33;100.00
42111;BME280;27766;52.174;5.456;2022-12-18T12:36:58;102351.66;;;-2.13;100.00
42111;BME280;27766;52.174;5.456;2022-12-18T12:39:30;102342.41;;;-2.12;100.00
42111;BME280;27766;52.174;5.456;2022-12-18T12:41:59;102337.03;;;-2.15;100.00
42111;BME280;27766;52.174;5.456;2022-12-18T12:44:51;102338.50;;;-2.09;100.00
42111;BME280;27766;52.174;5.456;2022-12-18T12:47:28;102333.88;;;-2.04;100.00
42111;BME280;27766;52.174;5.456;2022-12-18T12:49:59;102319.81;;;-2.00;100.00
42111;BME280;27766;52.174;5.456;2022-12-18T12:52:54;102312.38;;;-2.08;100.00
42111;BME280;27766;52.174;5.456;2022-12-18T12:55:24;102323.38;;;-1.98;100.00
42111;BME280;27766;52.174;5.456;2022-12-18T13:00:29;102317.41;;;-1.99;100.00
42111;BME280;27766;52.174;5.456;2022-12-18T13:08:29;102306.03;;;-1.94;100.00
42111;BME280;27766;52.174;5.456;2022-12-18T13:11:30;102310.66;;;-1.89;100.00
42111;BME280;27766;52.174;5.456;2022-12-18T13:14:36;102305.00;;;-1.96;100.00
42111;BME280;27766;52.174;5.456;2022-12-18T13:20:11;102317.03;;;-1.84;100.00
42111;BME280;27766;52.174;5.456;2022-12-18T13:22:47;102318.06;;;-1.82;100.00
42111;BME280;27766;52.174;5.456;2022-12-18T13:25:31;102311.22;;;-1.83;100.00
42111;BME280;27766;52.174;5.456;2022-12-18T13:28:07;102310.47;;;-1.82;100.00
42111;BME280;27766;52.174;5.456;2022-12-18T13:40:54;102295.50;;;-1.79;100.00
42111;BME280;27766;52.174;5.456;2022-12-18T13:48:36;102275.06;;;-1.81;100.00
42111;BME280;27766;52.174;5.456;2022-12-18T13:51:10;102256.66;;;-1.78;100.00
42111;BME280;27766;52.174;5.456;2022-12-18T13:54:00;102247.41;;;-1.78;100.00
42111;BME280;27766;52.174;5.456;2022-12-18T13:56:32;102237.47;;;-1.85;100.00
42111;BME280;27766;52.174;5.456;2022-12-18T14:01:53;102253.50;;;-1.76;100.00
42111;BME280;27766;52.174;5.456;2022-12-18T14:04:27;102244.13;;;-1.77;100.00
42111;BME280;27766;52.174;5.456;2022-12-18T14:07:11;102238.00;;;-1.79;100.00
42111;BME280;27766;52.174;5.456;2022-12-18T14:09:43;102231.16;;;-1.80;100.00
42111;BME280;27766;52.174;5.456;2022-12-18T14:12:20;102241.09;;;-1.72;100.00
42111;BME280;27766;52.174;5.456;2022-12-18T14:17:44;102201.34;;;-1.91;100.00
42111;BME280;27766;52.174;5.456;2022-12-18T14:20:15;102221.66;;;-1.72;100.00
42111;BME280;27766;52.174;5.456;2022-12-18T14:22:47;102213.28;;;-1.71;100.00
42111;BME280;27766;52.174;5.456;2022-12-18T14:25:22;102215.72;;;-1.72;100.00
42111;BME280;27766;52.174;5.456;2022-12-18T14:28:13;102206.63;;;-1.79;100.00
42111;BME280;27766;52.174;5.456;2022-12-18T14:30:43;102204.19;;;-1.69;100.00
42111;BME280;27766;52.174;5.456;2022-12-18T14:33:25;102200.75;;;-1.69;100.00
42111;BME280;27766;52.174;5.456;2022-12-18T14:36:04;102196.56;;;-1.69;100.00
42111;BME280;27766;52.174;5.456;2022-12-18T14:38:38;102185.53;;;-1.69;100.00
42111;BME280;27766;52.174;5.456;2022-12-18T14:41:13;102188.94;;;-1.69;100.00
42111;BME280;27766;52.174;5.456;2022-12-18T14:43:43;102192.25;;;-1.70;100.00
42111;BME280;27766;52.174;5.456;2022-12-18T14:46:34;102198.34;;;-1.68;100.00
42111;BME280;27766;52.174;5.456;2022-12-18T14:49:27;102197.44;;;-1.68;100.00
42111;BME280;27766;52.174;5.456;2022-12-18T14:54:25;102167.34;;;-1.74;100.00
42111;BME280;27766;52.174;5.456;2022-12-18T14:57:21;102174.47;;;-1.70;100.00
42111;BME280;27766;52.174;5.456;2022-12-18T14:59:50;102176.38;;;-1.67;100.00
42111;BME280;27766;52.174;5.456;2022-12-18T15:02:26;102176.38;;;-1.67;100.00
42111;BME280;27766;52.174;5.456;2022-12-18T15:07:44;102180.56;;;-1.68;100.00
42111;BME280;27766;52.174;5.456;2022-12-18T15:10:16;102172.22;;;-1.67;100.00